sensor_id;sensor_type;location;lat;lon;timestamp;P1;durP1;ratioP1;P2;durP2;ratioP2
75758;SDS011;64371;47.566;19.086;2023-03-23T00:00:32;33.90;;;16.02;;
75758;SDS011;64371;47.566;19.086;2023-03-23T00:03:33;33.95;;;16.17;;
75758;SDS011;64371;47.566;19.086;2023-03-23T00:06:35;31.27;;;15.82;;
75758;SDS011;64371;47.566;19.086;2023-03-23T00:09:37;27.75;;;15.38;;
75758;SDS011;64371;47.566;19.086;2023-03-23T00:12:41;28.63;;;14.87;;
75758;SDS011;64371;47.566;19.086;2023-03-23T00:15:42;30.13;;;14.90;;
75758;SDS011;64371;47.566;19.086;2023-03-23T00:18:48;29.80;;;15.45;;
75758;SDS011;64371;47.566;19.086;2023-03-23T00:21:53;26.98;;;14.25;;
75758;SDS011;64371;47.566;19.086;2023-03-23T00:24:54;27.65;;;14.43;;
75758;SDS011;64371;47.566;19.086;2023-03-23T00:27:56;26.90;;;13.97;;
75758;SDS011;64371;47.566;19.086;2023-03-23T00:31:01;26.20;;;13.93;;
75758;SDS011;64371;47.566;19.086;2023-03-23T00:34:05;27.35;;;15.30;;
75758;SDS011;64371;47.566;19.086;2023-03-23T00:37:07;27.58;;;14.90;;
75758;SDS011;64371;47.566;19.086;2023-03-23T00:40:08;32.92;;;15.45;;
75758;SDS011;64371;47.566;19.086;2023-03-23T00:43:11;26.70;;;14.37;;
75758;SDS011;64371;47.566;19.086;2023-03-23T00:46:14;33.38;;;14.85;;
75758;SDS011;64371;47.566;19.086;2023-03-23T00:49:17;27.25;;;13.90;;
75758;SDS011;64371;47.566;19.086;2023-03-23T00:52:20;26.33;;;13.85;;
75758;SDS011;64371;47.566;19.086;2023-03-23T00:55:21;30.98;;;15.52;;
75758;SDS011;64371;47.566;19.086;2023-03-23T00:58:23;27.90;;;14.07;;
75758;SDS011;64371;47.566;19.086;2023-03-23T01:01:24;29.00;;;14.95;;
75758;SDS011;64371;47.566;19.086;2023-03-23T01:04:25;32.50;;;15.65;;
75758;SDS011;64371;47.566;19.086;2023-03-23T01:07:29;29.98;;;15.15;;
75758;SDS011;64371;47.566;19.086;2023-03-23T01:10:32;30.92;;;15.20;;
75758;SDS011;64371;47.566;19.086;2023-03-23T01:13:33;32.27;;;15.03;;
75758;SDS011;64371;47.566;19.086;2023-03-23T01:16:35;30.55;;;15.23;;
75758;SDS011;64371;47.566;19.086;2023-03-23T01:19:36;36.15;;;16.20;;
75758;SDS011;64371;47.566;19.086;2023-03-23T01:22:39;31.63;;;14.88;;
75758;SDS011;64371;47.566;19.086;2023-03-23T01:25:40;29.90;;;14.75;;
75758;SDS011;64371;47.566;19.086;2023-03-23T01:28:41;33.13;;;15.03;;
75758;SDS011;64371;47.566;19.086;2023-03-23T01:31:43;30.45;;;14.65;;
75758;SDS011;64371;47.566;19.086;2023-03-23T01:34:44;32.08;;;15.57;;
75758;SDS011;64371;47.566;19.086;2023-03-23T01:37:46;28.90;;;14.88;;
75758;SDS011;64371;47.566;19.086;2023-03-23T01:40:48;29.85;;;14.57;;
75758;SDS011;64371;47.566;19.086;2023-03-23T01:45:12;30.03;;;14.83;;
75758;SDS011;64371;47.566;19.086;2023-03-23T01:47:31;33.22;;;15.23;;
75758;SDS011;64371;47.566;19.086;2023-03-23T01:50:34;31.63;;;15.55;;
75758;SDS011;64371;47.566;19.086;2023-03-23T01:53:46;30.15;;;15.00;;
75758;SDS011;64371;47.566;19.086;2023-03-23T01:57:01;36.45;;;15.38;;
75758;SDS011;64371;47.566;19.086;2023-03-23T02:00:06;31.23;;;15.57;;
75758;SDS011;64371;47.566;19.086;2023-03-23T02:03:15;33.28;;;15.05;;
75758;SDS011;64371;47.566;19.086;2023-03-23T02:06:17;34.78;;;17.25;;
75758;SDS011;64371;47.566;19.086;2023-03-23T02:09:37;33.85;;;16.70;;
75758;SDS011;64371;47.566;19.086;2023-03-23T02:12:39;34.40;;;16.55;;
75758;SDS011;64371;47.566;19.086;2023-03-23T02:32:16;34.50;;;16.33;;
75758;SDS011;64371;47.566;19.086;2023-03-23T02:35:24;36.28;;;18.15;;
75758;SDS011;64371;47.566;19.086;2023-03-23T02:41:45;32.75;;;17.55;;
75758;SDS011;64371;47.566;19.086;2023-03-23T02:44:54;41.03;;;19.20;;
75758;SDS011;64371;47.566;19.086;2023-03-23T02:47:58;31.87;;;17.10;;
75758;SDS011;64371;47.566;19.086;2023-03-23T02:51:03;32.67;;;16.65;;
75758;SDS011;64371;47.566;19.086;2023-03-23T02:54:06;33.22;;;16.98;;
75758;SDS011;64371;47.566;19.086;2023-03-23T02:57:09;37.50;;;18.85;;
75758;SDS011;64371;47.566;19.086;2023-03-23T03:00:14;31.92;;;17.17;;
75758;SDS011;64371;47.566;19.086;2023-03-23T03:03:18;30.27;;;16.90;;
75758;SDS011;64371;47.566;19.086;2023-03-23T03:09:49;30.20;;;15.43;;
75758;SDS011;64371;47.566;19.086;2023-03-23T03:16:07;29.70;;;15.20;;
75758;SDS011;64371;47.566;19.086;2023-03-23T03:19:17;28.37;;;14.10;;
75758;SDS011;64371;47.566;19.086;2023-03-23T03:22:26;30.98;;;15.00;;
75758;SDS011;64371;47.566;19.086;2023-03-23T03:25:30;26.60;;;14.23;;
75758;SDS011;64371;47.566;19.086;2023-03-23T03:28:33;27.83;;;14.90;;
75758;SDS011;64371;47.566;19.086;2023-03-23T03:31:36;38.60;;;16.13;;
75758;SDS011;64371;47.566;19.086;2023-03-23T03:34:40;29.60;;;14.60;;
75758;SDS011;64371;47.566;19.086;2023-03-23T03:37:42;29.77;;;14.77;;
75758;SDS011;64371;47.566;19.086;2023-03-23T03:40:44;27.75;;;14.75;;
75758;SDS011;64371;47.566;19.086;2023-03-23T03:43:45;28.35;;;14.43;;
75758;SDS011;64371;47.566;19.086;2023-03-23T03:46:47;28.13;;;13.90;;
75758;SDS011;64371;47.566;19.086;2023-03-23T03:49:48;29.17;;;14.30;;
75758;SDS011;64371;47.566;19.086;2023-03-23T03:52:49;32.35;;;15.18;;
75758;SDS011;64371;47.566;19.086;2023-03-23T03:55:50;28.42;;;15.18;;
75758;SDS011;64371;47.566;19.086;2023-03-23T03:58:56;27.90;;;14.05;;
75758;SDS011;64371;47.566;19.086;2023-03-23T04:02:18;26.17;;;13.35;;
75758;SDS011;64371;47.566;19.086;2023-03-23T04:05:22;26.23;;;13.47;;
75758;SDS011;64371;47.566;19.086;2023-03-23T04:08:25;25.83;;;14.95;;
75758;SDS011;64371;47.566;19.086;2023-03-23T04:11:28;28.55;;;15.40;;
75758;SDS011;64371;47.566;19.086;2023-03-23T04:14:43;24.67;;;13.48;;
75758;SDS011;64371;47.566;19.086;2023-03-23T04:17:45;32.22;;;16.67;;
75758;SDS011;64371;47.566;19.086;2023-03-23T04:20:46;41.23;;;19.70;;
75758;SDS011;64371;47.566;19.086;2023-03-23T04:23:51;45.05;;;19.15;;
75758;SDS011;64371;47.566;19.086;2023-03-23T04:26:54;47.95;;;21.98;;
75758;SDS011;64371;47.566;19.086;2023-03-23T04:30:00;42.42;;;19.55;;
75758;SDS011;64371;47.566;19.086;2023-03-23T04:33:14;44.35;;;19.25;;
75758;SDS011;64371;47.566;19.086;2023-03-23T04:36:21;46.93;;;22.80;;
75758;SDS011;64371;47.566;19.086;2023-03-23T04:39:46;71.57;;;28.95;;
75758;SDS011;64371;47.566;19.086;2023-03-23T04:42:49;94.47;;;33.65;;
75758;SDS011;64371;47.566;19.086;2023-03-23T04:46:15;90.10;;;33.08;;
75758;SDS011;64371;47.566;19.086;2023-03-23T04:49:20;97.30;;;35.78;;
75758;SDS011;64371;47.566;19.086;2023-03-23T04:52:26;129.33;;;38.77;;
75758;SDS011;64371;47.566;19.086;2023-03-23T04:55:34;146.45;;;44.97;;
75758;SDS011;64371;47.566;19.086;2023-03-23T04:58:38;117.30;;;40.03;;
75758;SDS011;64371;47.566;19.086;2023-03-23T05:01:59;79.78;;;29.48;;
75758;SDS011;64371;47.566;19.086;2023-03-23T05:05:02;61.47;;;24.65;;
75758;SDS011;64371;47.566;19.086;2023-03-23T05:08:04;64.43;;;23.40;;
75758;SDS011;64371;47.566;19.086;2023-03-23T05:11:09;75.07;;;28.80;;
75758;SDS011;64371;47.566;19.086;2023-03-23T05:14:13;71.55;;;28.00;;
75758;SDS011;64371;47.566;19.086;2023-03-23T05:17:17;56.05;;;23.02;;
75758;SDS011;64371;47.566;19.086;2023-03-23T05:20:21;52.72;;;23.17;;
75758;SDS011;64371;47.566;19.086;2023-03-23T05:23:37;54.57;;;21.30;;
75758;SDS011;64371;47.566;19.086;2023-03-23T05:26:50;60.35;;;23.02;;
75758;SDS011;64371;47.566;19.086;2023-03-23T05:30:04;50.30;;;22.13;;
75758;SDS011;64371;47.566;19.086;2023-03-23T05:33:08;53.17;;;20.98;;
75758;SDS011;64371;47.566;19.086;2023-03-23T05:36:19;56.22;;;24.00;;
75758;SDS011;64371;47.566;19.086;2023-03-23T05:39:42;46.00;;;21.03;;
75758;SDS011;64371;47.566;19.086;2023-03-23T05:43:09;32.70;;;16.85;;
75758;SDS011;64371;47.566;19.086;2023-03-23T05:46:37;32.88;;;16.13;;
75758;SDS011;64371;47.566;19.086;2023-03-23T05:49:38;39.72;;;20.08;;
75758;SDS011;64371;47.566;19.086;2023-03-23T05:52:43;36.78;;;19.90;;
75758;SDS011;64371;47.566;19.086;2023-03-23T05:55:46;42.23;;;20.00;;
75758;SDS011;64371;47.566;19.086;2023-03-23T05:59:03;38.65;;;20.20;;
75758;SDS011;64371;47.566;19.086;2023-03-23T06:02:08;31.33;;;15.75;;
75758;SDS011;64371;47.566;19.086;2023-03-23T06:05:09;32.75;;;15.85;;
75758;SDS011;64371;47.566;19.086;2023-03-23T06:08:14;41.97;;;18.85;;
75758;SDS011;64371;47.566;19.086;2023-03-23T06:11:15;41.23;;;18.63;;
75758;SDS011;64371;47.566;19.086;2023-03-23T06:14:36;41.60;;;20.17;;
75758;SDS011;64371;47.566;19.086;2023-03-23T06:17:39;39.55;;;20.88;;
75758;SDS011;64371;47.566;19.086;2023-03-23T06:20:41;34.50;;;18.60;;
75758;SDS011;64371;47.566;19.086;2023-03-23T06:24:00;30.13;;;17.13;;
75758;SDS011;64371;47.566;19.086;2023-03-23T06:27:04;30.53;;;17.33;;
75758;SDS011;64371;47.566;19.086;2023-03-23T06:30:06;23.30;;;13.90;;
75758;SDS011;64371;47.566;19.086;2023-03-23T06:33:07;23.05;;;13.05;;
75758;SDS011;64371;47.566;19.086;2023-03-23T06:36:30;22.60;;;13.68;;
75758;SDS011;64371;47.566;19.086;2023-03-23T06:39:44;23.60;;;12.40;;
75758;SDS011;64371;47.566;19.086;2023-03-23T06:42:56;23.63;;;12.30;;
75758;SDS011;64371;47.566;19.086;2023-03-23T06:46:13;23.05;;;11.98;;
75758;SDS011;64371;47.566;19.086;2023-03-23T06:49:14;20.75;;;11.93;;
75758;SDS011;64371;47.566;19.086;2023-03-23T06:52:24;23.95;;;11.45;;
75758;SDS011;64371;47.566;19.086;2023-03-23T06:55:27;14.80;;;7.72;;
75758;SDS011;64371;47.566;19.086;2023-03-23T06:58:29;19.50;;;10.90;;
75758;SDS011;64371;47.566;19.086;2023-03-23T07:01:30;23.25;;;11.80;;
75758;SDS011;64371;47.566;19.086;2023-03-23T07:04:35;21.10;;;12.00;;
75758;SDS011;64371;47.566;19.086;2023-03-23T07:07:47;20.05;;;11.73;;
75758;SDS011;64371;47.566;19.086;2023-03-23T07:11:05;20.05;;;9.65;;
75758;SDS011;64371;47.566;19.086;2023-03-23T07:14:07;19.30;;;10.10;;
75758;SDS011;64371;47.566;19.086;2023-03-23T07:17:09;18.60;;;10.68;;
75758;SDS011;64371;47.566;19.086;2023-03-23T07:20:17;20.23;;;11.23;;
75758;SDS011;64371;47.566;19.086;2023-03-23T07:23:19;16.00;;;9.27;;
75758;SDS011;64371;47.566;19.086;2023-03-23T07:26:41;15.65;;;8.60;;
75758;SDS011;64371;47.566;19.086;2023-03-23T07:29:43;13.17;;;6.93;;
75758;SDS011;64371;47.566;19.086;2023-03-23T07:32:52;21.05;;;10.55;;
75758;SDS011;64371;47.566;19.086;2023-03-23T07:35:54;20.27;;;11.98;;
75758;SDS011;64371;47.566;19.086;2023-03-23T07:38:56;20.05;;;11.50;;
75758;SDS011;64371;47.566;19.086;2023-03-23T07:41:59;17.77;;;10.73;;
75758;SDS011;64371;47.566;19.086;2023-03-23T07:45:16;19.87;;;10.03;;
75758;SDS011;64371;47.566;19.086;2023-03-23T07:48:17;18.70;;;10.80;;
75758;SDS011;64371;47.566;19.086;2023-03-23T07:51:19;18.10;;;10.98;;
75758;SDS011;64371;47.566;19.086;2023-03-23T07:54:25;20.08;;;10.05;;
75758;SDS011;64371;47.566;19.086;2023-03-23T07:57:26;25.08;;;10.98;;
75758;SDS011;64371;47.566;19.086;2023-03-23T08:00:28;18.23;;;10.27;;
75758;SDS011;64371;47.566;19.086;2023-03-23T08:03:31;17.02;;;10.40;;
75758;SDS011;64371;47.566;19.086;2023-03-23T08:06:47;17.02;;;9.50;;
75758;SDS011;64371;47.566;19.086;2023-03-23T08:10:11;15.27;;;8.60;;
75758;SDS011;64371;47.566;19.086;2023-03-23T08:13:34;17.45;;;9.95;;
75758;SDS011;64371;47.566;19.086;2023-03-23T08:17:10;14.33;;;6.50;;
75758;SDS011;64371;47.566;19.086;2023-03-23T08:20:22;16.42;;;9.85;;
75758;SDS011;64371;47.566;19.086;2023-03-23T08:23:45;15.02;;;7.57;;
75758;SDS011;64371;47.566;19.086;2023-03-23T08:27:04;16.67;;;9.38;;
75758;SDS011;64371;47.566;19.086;2023-03-23T08:30:37;15.07;;;8.00;;
75758;SDS011;64371;47.566;19.086;2023-03-23T08:34:01;15.13;;;9.00;;
75758;SDS011;64371;47.566;19.086;2023-03-23T08:37:26;17.00;;;8.30;;
75758;SDS011;64371;47.566;19.086;2023-03-23T08:40:36;18.20;;;9.80;;
75758;SDS011;64371;47.566;19.086;2023-03-23T08:43:56;14.60;;;7.20;;
75758;SDS011;64371;47.566;19.086;2023-03-23T08:47:28;12.95;;;6.72;;
75758;SDS011;64371;47.566;19.086;2023-03-23T08:50:46;12.47;;;6.67;;
75758;SDS011;64371;47.566;19.086;2023-03-23T08:54:06;16.48;;;9.85;;
75758;SDS011;64371;47.566;19.086;2023-03-23T08:57:20;19.27;;;9.70;;
75758;SDS011;64371;47.566;19.086;2023-03-23T09:00:41;17.42;;;10.00;;
75758;SDS011;64371;47.566;19.086;2023-03-23T09:03:53;14.10;;;9.10;;
75758;SDS011;64371;47.566;19.086;2023-03-23T09:07:09;14.63;;;9.20;;
75758;SDS011;64371;47.566;19.086;2023-03-23T09:10:12;14.52;;;7.00;;
75758;SDS011;64371;47.566;19.086;2023-03-23T09:13:14;18.10;;;8.07;;
75758;SDS011;64371;47.566;19.086;2023-03-23T09:16:15;11.02;;;6.15;;
75758;SDS011;64371;47.566;19.086;2023-03-23T09:19:16;11.82;;;6.25;;
75758;SDS011;64371;47.566;19.086;2023-03-23T09:22:34;15.82;;;7.53;;
75758;SDS011;64371;47.566;19.086;2023-03-23T09:25:35;18.25;;;7.53;;
75758;SDS011;64371;47.566;19.086;2023-03-23T09:28:37;8.63;;;5.30;;
75758;SDS011;64371;47.566;19.086;2023-03-23T09:31:38;12.68;;;6.90;;
75758;SDS011;64371;47.566;19.086;2023-03-23T09:34:40;13.15;;;8.68;;
75758;SDS011;64371;47.566;19.086;2023-03-23T09:37:45;14.07;;;7.45;;
75758;SDS011;64371;47.566;19.086;2023-03-23T09:40:47;11.00;;;7.32;;
75758;SDS011;64371;47.566;19.086;2023-03-23T09:50:16;9.95;;;6.38;;
75758;SDS011;64371;47.566;19.086;2023-03-23T09:53:22;11.43;;;6.50;;
75758;SDS011;64371;47.566;19.086;2023-03-23T09:56:30;13.82;;;7.30;;
75758;SDS011;64371;47.566;19.086;2023-03-23T10:02:49;17.50;;;8.70;;
75758;SDS011;64371;47.566;19.086;2023-03-23T10:05:57;12.40;;;6.78;;
75758;SDS011;64371;47.566;19.086;2023-03-23T10:09:00;19.05;;;7.85;;
